createdAt,value
2022-12-12T00:00:49.159Z,100.00
2022-12-12T00:03:15.665Z,100.00
2022-12-12T00:05:42.141Z,100.00
2022-12-12T00:08:08.636Z,100.00
2022-12-12T00:10:36.025Z,100.00
2022-12-12T00:13:02.849Z,100.00
2022-12-12T00:15:29.710Z,100.00
2022-12-12T00:17:56.447Z,100.00
2022-12-12T00:20:22.974Z,100.00
2022-12-12T00:22:49.363Z,100.00
2022-12-12T00:25:15.828Z,100.00
2022-12-12T00:27:42.320Z,100.00
2022-12-12T00:30:09.149Z,100.00
2022-12-12T00:32:35.598Z,100.00
2022-12-12T00:35:02.010Z,100.00
2022-12-12T00:37:28.422Z,100.00
2022-12-12T00:39:54.841Z,100.00
2022-12-12T00:42:21.243Z,100.00
2022-12-12T00:44:47.642Z,100.00
2022-12-12T00:47:14.066Z,100.00
2022-12-12T00:49:40.854Z,100.00
2022-12-12T00:52:07.294Z,100.00
2022-12-12T00:54:33.917Z,100.00
2022-12-12T00:57:00.342Z,100.00
2022-12-12T00:59:26.738Z,100.00
2022-12-12T01:01:53.341Z,100.00
2022-12-12T01:04:19.844Z,100.00
2022-12-12T01:06:46.274Z,100.00
2022-12-12T01:09:14.012Z,100.00
2022-12-12T01:11:40.526Z,100.00
2022-12-12T01:14:07.406Z,100.00
2022-12-12T01:16:33.836Z,100.00
2022-12-12T01:19:00.296Z,100.00
2022-12-12T01:21:26.716Z,100.00
2022-12-12T01:23:53.222Z,100.00
2022-12-12T01:26:22.389Z,100.00
2022-12-12T01:28:49.279Z,100.00
2022-12-12T01:31:16.463Z,100.00
2022-12-12T01:33:46.278Z,100.00
2022-12-12T01:36:17.855Z,100.00
2022-12-12T01:38:48.947Z,100.00
2022-12-12T01:41:16.318Z,100.00
2022-12-12T01:43:42.974Z,100.00
2022-12-12T01:46:34.711Z,100.00
2022-12-12T01:49:11.208Z,100.00
2022-12-12T01:51:39.426Z,100.00
2022-12-12T01:54:10.306Z,100.00
2022-12-12T01:56:39.610Z,100.00
2022-12-12T01:59:08.725Z,100.00
2022-12-12T02:01:35.901Z,100.00
2022-12-12T02:04:03.377Z,100.00
2022-12-12T02:06:30.247Z,100.00
2022-12-12T02:09:01.093Z,100.00
2022-12-12T02:11:29.471Z,100.00
2022-12-12T02:13:56.924Z,100.00
2022-12-12T02:16:54.837Z,100.00
2022-12-12T02:20:02.751Z,100.00
2022-12-12T02:22:47.590Z,100.00
2022-12-12T02:25:47.802Z,100.00
2022-12-12T02:28:33.514Z,100.00
2022-12-12T02:31:21.961Z,100.00
2022-12-12T02:34:16.343Z,100.00
2022-12-12T02:37:01.722Z,100.00
2022-12-12T02:40:13.206Z,100.00
2022-12-12T02:42:51.692Z,100.00
2022-12-12T02:45:27.712Z,100.00
2022-12-12T02:48:00.374Z,100.00
2022-12-12T02:50:30.659Z,100.00
2022-12-12T02:52:59.960Z,100.00
2022-12-12T02:55:26.731Z,100.00
2022-12-12T02:57:55.316Z,100.00
2022-12-12T03:00:21.856Z,100.00
2022-12-12T03:03:33.894Z,100.00
2022-12-12T03:06:54.225Z,100.00
2022-12-12T03:09:47.995Z,100.00
2022-12-12T03:12:24.641Z,100.00
2022-12-12T03:15:02.298Z,100.00
2022-12-12T03:18:01.223Z,100.00
2022-12-12T03:20:45.164Z,100.00
2022-12-12T03:23:17.778Z,100.00
2022-12-12T03:26:03.689Z,100.00
2022-12-12T03:28:38.971Z,100.00
2022-12-12T03:31:09.424Z,100.00
2022-12-12T03:33:46.214Z,100.00
2022-12-12T03:36:21.817Z,100.00
2022-12-12T03:38:56.912Z,100.00
2022-12-12T03:41:28.360Z,100.00
2022-12-12T03:44:01.864Z,100.00
2022-12-12T03:46:33.565Z,100.00
2022-12-12T03:49:18.864Z,100.00
2022-12-12T03:51:51.837Z,100.00
2022-12-12T03:54:26.269Z,100.00
2022-12-12T03:57:11.877Z,100.00
2022-12-12T03:59:59.062Z,100.00
2022-12-12T04:02:41.144Z,100.00
2022-12-12T04:05:14.075Z,100.00
2022-12-12T04:07:49.525Z,100.00
2022-12-12T04:10:34.900Z,100.00
2022-12-12T04:13:26.238Z,100.00
2022-12-12T04:16:11.950Z,100.00
2022-12-12T04:18:51.691Z,100.00
2022-12-12T04:22:12.879Z,100.00
2022-12-12T04:24:50.540Z,100.00
2022-12-12T04:27:34.414Z,100.00
2022-12-12T04:30:11.018Z,100.00
2022-12-12T04:32:42.978Z,100.00
2022-12-12T04:35:14.672Z,100.00
2022-12-12T04:37:48.411Z,100.00
2022-12-12T04:40:21.750Z,100.00
2022-12-12T04:42:56.548Z,100.00
2022-12-12T04:45:27.866Z,100.00
2022-12-12T04:47:56.707Z,100.00
2022-12-12T04:50:25.344Z,100.00
2022-12-12T04:52:54.790Z,100.00
2022-12-12T04:55:27.394Z,100.00
2022-12-12T04:57:55.272Z,100.00
2022-12-12T05:00:23.522Z,100.00
2022-12-12T05:02:57.664Z,100.00
2022-12-12T05:05:56.194Z,100.00
2022-12-12T05:08:29.965Z,100.00
2022-12-12T05:10:59.896Z,100.00
2022-12-12T05:13:32.218Z,100.00
2022-12-12T05:16:02.302Z,100.00
2022-12-12T05:18:35.789Z,100.00
2022-12-12T05:21:05.044Z,100.00
2022-12-12T05:23:34.621Z,100.00
2022-12-12T05:26:25.819Z,100.00
2022-12-12T05:28:52.821Z,100.00
2022-12-12T05:31:20.075Z,100.00
2022-12-12T05:33:46.910Z,100.00
2022-12-12T05:36:13.853Z,100.00
2022-12-12T05:38:41.067Z,100.00
2022-12-12T05:41:07.735Z,100.00
2022-12-12T05:43:34.145Z,100.00
2022-12-12T05:46:00.883Z,100.00
2022-12-12T05:48:27.862Z,100.00
2022-12-12T05:50:54.643Z,100.00
2022-12-12T05:53:21.110Z,100.00
2022-12-12T05:55:51.043Z,100.00
2022-12-12T05:58:19.069Z,100.00
2022-12-12T06:00:49.876Z,100.00
2022-12-12T06:03:16.290Z,100.00
2022-12-12T06:05:42.708Z,100.00
2022-12-12T06:08:09.541Z,100.00
2022-12-12T06:10:35.972Z,100.00
2022-12-12T06:13:04.957Z,100.00
2022-12-12T06:15:31.602Z,100.00
2022-12-12T06:17:58.530Z,100.00
2022-12-12T06:20:25.130Z,100.00
2022-12-12T06:22:53.802Z,100.00
2022-12-12T06:25:20.762Z,100.00
2022-12-12T06:27:47.237Z,100.00
2022-12-12T06:30:13.939Z,100.00
2022-12-12T06:32:40.351Z,100.00
2022-12-12T06:35:06.859Z,100.00
2022-12-12T06:37:33.235Z,100.00
2022-12-12T06:39:59.633Z,100.00
2022-12-12T06:42:26.398Z,100.00
2022-12-12T06:44:52.804Z,100.00
2022-12-12T06:47:19.198Z,100.00
2022-12-12T06:49:45.626Z,100.00
2022-12-12T06:52:13.332Z,100.00
2022-12-12T06:54:39.789Z,100.00
2022-12-12T06:57:15.656Z,100.00
2022-12-12T06:59:44.637Z,100.00
2022-12-12T07:02:12.241Z,100.00
2022-12-12T07:04:38.659Z,100.00
2022-12-12T07:07:05.043Z,100.00
2022-12-12T07:09:32.113Z,100.00
2022-12-12T07:11:58.597Z,100.00
2022-12-12T07:14:25.024Z,100.00
2022-12-12T07:16:51.427Z,100.00
2022-12-12T07:19:18.300Z,100.00
2022-12-12T07:21:44.692Z,100.00
2022-12-12T07:24:17.242Z,100.00
2022-12-12T07:26:49.358Z,100.00
2022-12-12T07:29:21.460Z,100.00
2022-12-12T07:31:47.849Z,100.00
2022-12-12T07:34:14.301Z,100.00
2022-12-12T07:36:46.640Z,100.00
2022-12-12T07:39:20.676Z,100.00
2022-12-12T07:46:11.667Z,100.00
2022-12-12T07:48:38.301Z,100.00
2022-12-12T07:51:04.807Z,100.00
2022-12-12T07:53:31.457Z,100.00
2022-12-12T07:55:57.862Z,100.00
2022-12-12T07:58:25.274Z,100.00
2022-12-12T08:00:51.820Z,100.00
2022-12-12T08:03:18.241Z,100.00
2022-12-12T08:05:44.634Z,100.00
2022-12-12T08:08:11.385Z,100.00
2022-12-12T08:10:39.587Z,100.00
2022-12-12T08:13:06.673Z,100.00
2022-12-12T08:15:33.123Z,100.00
2022-12-12T08:17:59.531Z,100.00
2022-12-12T08:20:29.107Z,100.00
2022-12-12T08:22:55.527Z,100.00
2022-12-12T08:25:22.092Z,100.00
2022-12-12T08:27:54.312Z,100.00
2022-12-12T08:30:20.722Z,100.00
2022-12-12T08:32:47.096Z,100.00
2022-12-12T08:35:13.908Z,100.00
2022-12-12T08:37:40.546Z,100.00
2022-12-12T08:40:07.603Z,100.00
2022-12-12T08:42:34.256Z,100.00
2022-12-12T08:45:00.669Z,100.00
2022-12-12T08:47:27.229Z,100.00
2022-12-12T08:49:53.648Z,100.00
2022-12-12T08:52:20.271Z,100.00
2022-12-12T08:54:46.664Z,100.00
2022-12-12T08:57:13.056Z,100.00
2022-12-12T08:59:39.452Z,100.00
2022-12-12T09:02:06.180Z,100.00
2022-12-12T09:04:34.488Z,100.00
2022-12-12T09:07:06.595Z,100.00
2022-12-12T09:09:34.841Z,100.00
2022-12-12T09:12:01.264Z,100.00
2022-12-12T09:14:27.699Z,100.00
2022-12-12T09:16:54.108Z,100.00
2022-12-12T09:19:20.671Z,100.00
2022-12-12T09:21:47.068Z,100.00
2022-12-12T09:24:13.466Z,100.00
2022-12-12T09:26:39.873Z,100.00
2022-12-12T09:29:06.293Z,100.00
2022-12-12T09:31:32.773Z,100.00
2022-12-12T09:33:59.202Z,100.00
2022-12-12T09:36:25.615Z,100.00
2022-12-12T09:38:52.019Z,100.00
2022-12-12T09:41:27.047Z,100.00
2022-12-12T09:43:59.237Z,100.00
2022-12-12T09:46:53.243Z,100.00
2022-12-12T09:49:38.403Z,100.00
2022-12-12T09:52:13.460Z,100.00
2022-12-12T09:54:40.376Z,100.00
2022-12-12T09:57:30.066Z,100.00
2022-12-12T10:00:09.393Z,100.00
2022-12-12T10:03:04.783Z,100.00
2022-12-12T10:05:41.349Z,100.00
2022-12-12T10:08:24.146Z,100.00
2022-12-12T10:11:04.655Z,100.00
2022-12-12T10:13:34.320Z,100.00
2022-12-12T10:16:10.094Z,100.00
2022-12-12T10:18:41.967Z,100.00
2022-12-12T10:21:15.946Z,100.00
2022-12-12T10:23:47.576Z,100.00
2022-12-12T10:26:20.924Z,100.00
2022-12-12T10:28:52.834Z,100.00
2022-12-12T10:32:01.339Z,100.00
2022-12-12T10:34:48.608Z,100.00
2022-12-12T10:37:52.582Z,100.00
2022-12-12T10:40:51.543Z,100.00
2022-12-12T10:43:22.480Z,100.00
2022-12-12T10:46:15.090Z,100.00
2022-12-12T10:48:41.880Z,100.00
2022-12-12T10:51:15.777Z,100.00
2022-12-12T10:53:42.509Z,100.00
2022-12-12T10:56:18.198Z,100.00
2022-12-12T10:58:51.373Z,100.00
2022-12-12T11:01:38.475Z,100.00
2022-12-12T11:04:08.571Z,100.00
2022-12-12T11:06:43.899Z,100.00
2022-12-12T11:09:19.901Z,100.00
2022-12-12T11:12:00.172Z,100.00
2022-12-12T11:14:34.474Z,100.00
2022-12-12T11:17:01.032Z,100.00
2022-12-12T11:19:35.607Z,100.00
2022-12-12T11:22:04.645Z,100.00
2022-12-12T11:24:33.780Z,100.00
2022-12-12T11:27:06.601Z,100.00
2022-12-12T11:29:43.883Z,100.00
2022-12-12T11:32:19.492Z,100.00
2022-12-12T11:34:51.412Z,100.00
2022-12-12T11:37:21.758Z,100.00
2022-12-12T11:39:53.053Z,100.00
2022-12-12T11:42:21.114Z,100.00
2022-12-12T11:44:58.431Z,100.00
2022-12-12T11:47:42.095Z,100.00
2022-12-12T11:50:25.269Z,100.00
2022-12-12T11:52:55.160Z,100.00
2022-12-12T11:55:37.018Z,100.00
2022-12-12T11:58:21.630Z,100.00
2022-12-12T12:01:11.474Z,100.00
2022-12-12T12:03:58.883Z,100.00
2022-12-12T12:06:40.265Z,100.00
2022-12-12T12:09:18.739Z,100.00
2022-12-12T12:12:03.282Z,100.00
2022-12-12T12:14:54.697Z,99.76
2022-12-12T12:17:32.949Z,99.82
2022-12-12T12:20:34.821Z,99.08
2022-12-12T12:23:22.779Z,99.21
2022-12-12T12:25:58.163Z,99.13
2022-12-12T12:29:01.211Z,98.34
2022-12-12T12:31:58.318Z,96.90
2022-12-12T12:34:38.646Z,96.57
2022-12-12T12:37:29.481Z,95.44
2022-12-12T12:40:23.165Z,96.53
2022-12-12T12:43:01.579Z,96.73
2022-12-12T12:45:41.643Z,96.15
2022-12-12T12:48:22.961Z,95.12
2022-12-12T12:51:01.484Z,94.14
2022-12-12T12:53:51.008Z,94.96
2022-12-12T12:56:26.500Z,94.22
2022-12-12T12:59:00.959Z,95.15
2022-12-12T13:01:34.395Z,94.65
2022-12-12T13:04:08.007Z,95.25
2022-12-12T13:06:48.340Z,93.75
2022-12-12T13:09:38.230Z,94.18
2022-12-12T13:12:17.318Z,94.58
2022-12-12T13:14:54.919Z,94.89
2022-12-12T13:17:39.145Z,95.21
2022-12-12T13:20:06.267Z,95.85
2022-12-12T13:22:53.868Z,95.04
2022-12-12T13:25:34.222Z,95.32
2022-12-12T13:28:05.898Z,95.78
2022-12-12T13:31:01.065Z,95.70
2022-12-12T13:33:38.703Z,94.82
2022-12-12T13:36:13.097Z,96.17
2022-12-12T13:38:40.936Z,96.05
2022-12-12T13:41:09.729Z,95.30
2022-12-12T13:43:39.187Z,95.40
2022-12-12T13:46:20.941Z,95.53
2022-12-12T13:49:05.595Z,95.33
2022-12-12T13:51:38.159Z,95.32
2022-12-12T13:54:12.691Z,94.92
2022-12-12T13:57:11.489Z,95.29
2022-12-12T13:59:53.057Z,96.03
2022-12-12T14:02:38.584Z,95.37
2022-12-12T14:05:10.380Z,95.24
2022-12-12T14:07:43.743Z,95.24
2022-12-12T14:10:30.371Z,95.52
2022-12-12T14:12:57.376Z,95.62
2022-12-12T14:15:31.833Z,95.61
2022-12-12T14:18:01.899Z,96.23
2022-12-12T14:20:40.154Z,95.91
2022-12-12T14:23:12.801Z,96.48
2022-12-12T14:25:40.646Z,96.39
2022-12-12T14:28:23.318Z,96.48
2022-12-12T14:30:57.964Z,96.44
2022-12-12T14:33:40.001Z,96.37
2022-12-12T14:36:28.859Z,96.25
2022-12-12T14:39:21.170Z,97.22
2022-12-12T14:41:50.787Z,97.48
2022-12-12T14:44:36.901Z,97.12
2022-12-12T14:47:09.051Z,98.36
2022-12-12T14:49:35.738Z,99.00
2022-12-12T14:52:02.633Z,98.97
2022-12-12T14:54:30.770Z,98.65
2022-12-12T14:56:59.035Z,98.82
2022-12-12T14:59:38.374Z,99.08
2022-12-12T15:02:25.729Z,99.98
2022-12-12T15:05:04.207Z,99.54
2022-12-12T15:07:36.299Z,99.79
2022-12-12T15:10:07.739Z,100.00
2022-12-12T15:12:43.868Z,100.00
2022-12-12T15:15:27.575Z,100.00
2022-12-12T15:17:59.113Z,100.00
2022-12-12T15:20:27.982Z,100.00
2022-12-12T15:22:58.641Z,100.00
2022-12-12T15:25:35.902Z,100.00
2022-12-12T15:28:02.739Z,100.00
2022-12-12T15:30:32.046Z,100.00
2022-12-12T15:33:00.695Z,100.00
2022-12-12T15:35:27.912Z,100.00
2022-12-12T15:38:01.792Z,100.00
2022-12-12T15:40:35.550Z,100.00
2022-12-12T15:43:07.251Z,100.00
2022-12-12T15:45:36.679Z,100.00
2022-12-12T15:48:08.181Z,100.00
2022-12-12T15:50:53.898Z,100.00
2022-12-12T15:53:38.607Z,100.00
2022-12-12T15:56:22.192Z,100.00
2022-12-12T15:58:52.034Z,100.00
2022-12-12T16:01:28.261Z,100.00
2022-12-12T16:04:09.974Z,100.00
2022-12-12T16:06:45.934Z,100.00
2022-12-12T16:09:20.444Z,100.00
2022-12-12T16:11:51.825Z,100.00
2022-12-12T16:14:42.930Z,100.00
2022-12-12T16:17:18.161Z,100.00
2022-12-12T16:19:56.919Z,100.00
2022-12-12T16:22:48.751Z,100.00
2022-12-12T16:25:27.264Z,100.00
2022-12-12T16:28:05.426Z,100.00
2022-12-12T16:30:32.080Z,100.00
2022-12-12T16:32:58.496Z,100.00
2022-12-12T16:35:25.025Z,100.00
2022-12-12T16:37:53.404Z,100.00
2022-12-12T16:40:23.473Z,100.00
2022-12-12T16:43:06.158Z,100.00
2022-12-12T16:45:42.970Z,99.37
2022-12-12T16:48:18.950Z,99.45
2022-12-12T16:50:46.553Z,99.57
2022-12-12T16:53:13.738Z,99.65
2022-12-12T16:55:44.037Z,98.74
2022-12-12T16:58:13.488Z,98.88
2022-12-12T17:00:40.062Z,98.78
2022-12-12T17:03:09.875Z,99.28
2022-12-12T17:05:38.541Z,99.64
2022-12-12T17:08:05.483Z,99.64
2022-12-12T17:10:34.342Z,100.00
2022-12-12T17:13:06.747Z,99.56
2022-12-12T17:15:33.960Z,99.78
2022-12-12T17:18:01.316Z,99.77
2022-12-12T17:20:37.627Z,99.86
2022-12-12T17:23:29.412Z,100.00
2022-12-12T17:26:02.999Z,100.00
2022-12-12T17:28:31.389Z,100.00
2022-12-12T17:30:57.952Z,100.00
2022-12-12T17:33:24.490Z,100.00
2022-12-12T17:36:04.638Z,100.00
2022-12-12T17:38:33.649Z,100.00
2022-12-12T17:41:05.096Z,100.00
2022-12-12T17:43:31.590Z,100.00
2022-12-12T17:46:03.346Z,100.00
2022-12-12T17:48:32.128Z,100.00
2022-12-12T17:51:00.464Z,100.00
2022-12-12T17:53:32.086Z,100.00
2022-12-12T17:56:01.095Z,100.00
2022-12-12T17:58:33.826Z,100.00
2022-12-12T18:01:00.923Z,100.00
2022-12-12T18:03:27.382Z,100.00
2022-12-12T18:05:53.771Z,100.00
2022-12-12T18:08:20.174Z,100.00
2022-12-12T18:10:47.593Z,100.00
2022-12-12T18:13:14.139Z,100.00
2022-12-12T18:15:44.302Z,100.00
2022-12-12T18:18:11.726Z,99.54
2022-12-12T18:20:39.896Z,99.95
2022-12-12T18:23:06.300Z,99.35
2022-12-12T18:25:36.149Z,100.00
2022-12-12T18:28:02.565Z,100.00
2022-12-12T18:30:28.996Z,100.00
2022-12-12T18:33:01.162Z,100.00
2022-12-12T18:35:29.261Z,100.00
2022-12-12T18:37:55.644Z,100.00
2022-12-12T18:40:22.050Z,100.00
2022-12-12T18:42:48.445Z,99.83
2022-12-12T18:45:16.144Z,100.00
2022-12-12T18:47:43.431Z,100.00
2022-12-12T18:50:10.012Z,100.00
2022-12-12T18:52:36.408Z,100.00
2022-12-12T18:55:03.115Z,100.00
2022-12-12T18:57:29.502Z,100.00
2022-12-12T18:59:55.910Z,100.00
2022-12-12T19:02:22.360Z,100.00
2022-12-12T19:04:50.184Z,100.00
2022-12-12T19:07:18.413Z,100.00
2022-12-12T19:09:46.251Z,100.00
2022-12-12T19:12:12.651Z,100.00
2022-12-12T19:15:08.220Z,100.00
2022-12-12T19:17:28.449Z,100.00
2022-12-12T19:19:55.009Z,100.00
2022-12-12T19:25:09.641Z,100.00
2022-12-12T19:27:36.046Z,100.00
2022-12-12T19:30:02.443Z,100.00
2022-12-12T19:32:28.845Z,100.00
2022-12-12T19:34:55.671Z,100.00
2022-12-12T19:37:22.150Z,100.00
2022-12-12T19:39:52.874Z,100.00
2022-12-12T19:42:20.357Z,100.00
2022-12-12T19:44:46.955Z,100.00
2022-12-12T19:47:13.380Z,100.00
2022-12-12T19:49:39.896Z,100.00
2022-12-12T19:52:10.651Z,100.00
2022-12-12T19:54:40.175Z,100.00
2022-12-12T19:57:09.637Z,100.00
2022-12-12T19:59:36.123Z,100.00
2022-12-12T20:02:06.585Z,100.00
2022-12-12T20:04:33.338Z,100.00
2022-12-12T20:06:59.721Z,100.00
2022-12-12T20:09:29.931Z,100.00
2022-12-12T20:11:59.366Z,100.00
2022-12-12T20:14:28.365Z,100.00
2022-12-12T20:16:58.451Z,100.00
2022-12-12T20:19:27.793Z,100.00
2022-12-12T20:22:03.105Z,100.00
2022-12-12T20:24:32.204Z,100.00
2022-12-12T20:26:59.849Z,100.00
2022-12-12T20:29:27.357Z,100.00
2022-12-12T20:31:54.325Z,100.00
2022-12-12T20:34:25.147Z,100.00
2022-12-12T20:36:55.757Z,100.00
2022-12-12T20:39:23.343Z,100.00
2022-12-12T20:41:50.735Z,100.00
2022-12-12T20:44:17.674Z,100.00
2022-12-12T20:46:45.796Z,100.00
2022-12-12T20:49:18.530Z,100.00
2022-12-12T20:52:01.194Z,100.00
2022-12-12T20:54:28.980Z,100.00
2022-12-12T20:56:56.965Z,100.00
2022-12-12T20:59:24.130Z,100.00
2022-12-12T21:01:51.037Z,100.00
2022-12-12T21:04:17.477Z,100.00
2022-12-12T21:06:48.180Z,100.00
2022-12-12T21:09:22.786Z,100.00
2022-12-12T21:11:50.378Z,100.00
2022-12-12T21:14:16.877Z,99.56
2022-12-12T21:16:43.466Z,99.12
2022-12-12T21:19:12.901Z,98.72
2022-12-12T21:21:40.997Z,98.45
2022-12-12T21:24:07.876Z,97.07
2022-12-12T21:26:40.104Z,96.23
2022-12-12T21:29:07.587Z,96.09
2022-12-12T21:31:37.011Z,96.52
2022-12-12T21:34:05.044Z,98.39
2022-12-12T21:36:32.037Z,97.73
2022-12-12T21:38:59.781Z,98.41
2022-12-12T21:41:26.582Z,98.09
2022-12-12T21:43:55.238Z,98.19
2022-12-12T21:46:24.077Z,98.03
2022-12-12T21:49:11.884Z,98.02
2022-12-12T21:51:40.245Z,97.27
2022-12-12T21:54:08.109Z,97.11
2022-12-12T21:56:34.526Z,97.95
2022-12-12T21:59:01.005Z,98.34
2022-12-12T22:01:27.661Z,99.04
2022-12-12T22:03:54.489Z,98.92
2022-12-12T22:06:23.934Z,99.40
2022-12-12T22:08:51.241Z,99.75
2022-12-12T22:11:34.058Z,100.00
2022-12-12T22:14:06.734Z,100.00
2022-12-12T22:16:34.000Z,100.00
2022-12-12T22:19:05.809Z,100.00
2022-12-12T22:21:33.493Z,100.00
2022-12-12T22:24:00.303Z,99.87
2022-12-12T22:26:35.414Z,99.74
2022-12-12T22:29:05.377Z,98.97
2022-12-12T22:31:34.715Z,99.56
2022-12-12T22:34:03.822Z,98.80
2022-12-12T22:36:32.381Z,98.43
2022-12-12T22:38:59.927Z,97.89
2022-12-12T22:41:28.861Z,98.12
2022-12-12T22:44:00.709Z,98.78
2022-12-12T22:46:28.154Z,99.08
2022-12-12T22:48:57.488Z,99.06
2022-12-12T22:51:26.895Z,99.43
2022-12-12T22:53:58.341Z,99.51
2022-12-12T22:56:25.163Z,99.07
2022-12-12T22:58:51.582Z,99.36
2022-12-12T23:01:20.422Z,99.12
2022-12-12T23:03:47.466Z,99.41
2022-12-12T23:06:20.363Z,99.26
2022-12-12T23:08:58.853Z,98.95
2022-12-12T23:11:27.310Z,99.30
2022-12-12T23:13:55.916Z,99.56
2022-12-12T23:16:27.540Z,100.00
2022-12-12T23:18:54.543Z,100.00
2022-12-12T23:21:23.244Z,100.00
2022-12-12T23:23:50.092Z,99.49
2022-12-12T23:26:20.125Z,99.25
2022-12-12T23:28:47.653Z,99.14
2022-12-12T23:31:23.151Z,98.83
2022-12-12T23:33:55.218Z,99.23
2022-12-12T23:36:22.908Z,99.32
2022-12-12T23:38:53.698Z,98.74
2022-12-12T23:41:22.939Z,99.13
2022-12-12T23:43:50.222Z,99.45
2022-12-12T23:46:29.121Z,98.94
2022-12-12T23:48:58.060Z,100.00
2022-12-12T23:51:25.989Z,100.00
2022-12-12T23:53:55.079Z,100.00
2022-12-12T23:56:21.460Z,100.00
2022-12-12T23:58:47.846Z,100.00
